Time,TemperatureF,DewpointF,PressureIn,WindDirection,WindDirectionDegrees,WindSpeedMPH,WindSpeedGustMPH,Humidity,HourlyPrecipIn,Conditions,Clouds,dailyrainin,SolarRadiationWatts/m^2,SoftwareType,DateUTC
2013-11-16 00:01:00,61.2,60.6,30.14,NE,45,3.0,3.0,98,0.00,,,0.10,0.0,meteohub,2013-11-16 05:01:00,
2013-11-16 00:02:00,61.2,60.6,30.14,NNE,32,0.0,3.0,98,0.00,,,0.10,0.0,meteohub,2013-11-16 05:02:00,
2013-11-16 00:07:00,61.2,60.6,30.14,North,9,3.0,4.0,98,0.00,,,0.00,0.0,meteohub,2013-11-16 05:07:00,
2013-11-16 00:12:00,61.2,60.6,30.14,North,9,4.0,4.0,98,0.00,,,0.00,0.0,meteohub,2013-11-16 05:12:00,
2013-11-16 00:17:00,61.0,60.4,30.14,NE,48,3.0,4.0,98,0.00,,,0.00,0.0,meteohub,2013-11-16 05:17:00,
2013-11-16 00:22:00,61.0,60.4,30.13,NE,48,1.0,4.0,98,0.00,,,0.00,0.0,meteohub,2013-11-16 05:22:00,
2013-11-16 00:27:00,61.0,60.4,30.13,North,11,3.0,4.0,98,0.00,,,0.00,0.0,meteohub,2013-11-16 05:27:00,
2013-11-16 00:32:00,61.0,60.4,30.13,NNE,12,0.0,3.0,98,0.00,,,0.00,0.0,meteohub,2013-11-16 05:32:00,
2013-11-16 00:37:00,60.6,60.1,30.13,North,11,0.0,3.0,98,0.00,,,0.00,0.0,meteohub,2013-11-16 05:37:00,
2013-11-16 00:42:00,60.6,60.1,30.13,NNE,12,0.0,3.0,98,0.00,,,0.00,0.0,meteohub,2013-11-16 05:42:00,
2013-11-16 00:47:00,60.3,59.7,30.12,North,11,0.0,1.0,98,0.00,,,0.00,0.0,meteohub,2013-11-16 05:47:00,
2013-11-16 00:52:00,60.1,59.5,30.13,North,11,0.0,0.0,98,0.00,,,0.00,0.0,meteohub,2013-11-16 05:52:00,
2013-11-16 00:57:00,60.1,59.5,30.13,ENE,60,0.0,2.0,98,0.00,,,0.00,0.0,meteohub,2013-11-16 05:57:00,
2013-11-16 01:02:00,60.3,59.7,30.13,NE,51,2.0,3.0,98,0.00,,,0.00,0.0,meteohub,2013-11-16 06:02:00,
2013-11-16 01:07:00,60.3,59.7,30.13,NE,51,0.0,3.0,98,0.00,,,0.00,0.0,meteohub,2013-11-16 06:07:00,
2013-11-16 01:12:00,60.3,59.7,30.13,NE,51,0.0,3.0,98,0.00,,,0.00,0.0,meteohub,2013-11-16 06:12:00,
2013-11-16 01:17:00,60.3,59.7,30.13,NE,51,1.0,3.0,98,0.00,,,0.00,0.0,meteohub,2013-11-16 06:17:00,
2013-11-16 01:22:00,60.3,59.7,30.13,NE,51,0.0,3.0,98,0.00,,,0.00,0.0,meteohub,2013-11-16 06:22:00,
2013-11-16 01:27:00,60.1,59.5,30.13,NE,51,0.0,3.0,98,0.00,,,0.00,0.0,meteohub,2013-11-16 06:27:00,
2013-11-16 01:32:00,60.1,59.5,30.13,NE,51,0.0,3.0,98,0.00,,,0.00,0.0,meteohub,2013-11-16 06:32:00,
2013-11-16 01:37:00,60.1,59.5,30.13,NE,51,1.0,3.0,98,0.00,,,0.00,0.0,meteohub,2013-11-16 06:37:00,
2013-11-16 01:42:00,60.1,59.5,30.13,NE,51,0.0,3.0,98,0.00,,,0.00,0.0,meteohub,2013-11-16 06:42:00,
2013-11-16 01:47:00,60.1,59.5,30.13,NE,51,0.0,3.0,98,0.00,,,0.00,0.0,meteohub,2013-11-16 06:47:00,
2013-11-16 01:52:00,59.9,59.4,30.13,NE,51,1.0,3.0,98,0.00,,,0.00,0.0,meteohub,2013-11-16 06:52:00,
2013-11-16 01:57:00,59.9,59.4,30.13,NE,51,3.0,3.0,98,0.00,,,0.00,0.0,meteohub,2013-11-16 06:57:00,
2013-11-16 02:02:00,59.7,59.2,30.13,NE,35,1.0,3.0,98,0.00,,,0.00,0.0,meteohub,2013-11-16 07:02:00,
2013-11-16 02:07:00,59.7,59.2,30.13,NE,36,2.0,3.0,98,0.00,,,0.00,0.0,meteohub,2013-11-16 07:07:00,
2013-11-16 02:12:00,59.7,59.2,30.12,NE,36,0.0,3.0,98,0.00,,,0.00,0.0,meteohub,2013-11-16 07:12:00,
2013-11-16 02:17:00,59.7,59.2,30.12,NE,34,1.0,3.0,98,0.00,,,0.00,0.0,meteohub,2013-11-16 07:17:00,
2013-11-16 02:22:00,59.7,59.2,30.12,NNE,33,2.0,3.0,98,0.00,,,0.00,0.0,meteohub,2013-11-16 07:22:00,
2013-11-16 02:27:00,59.7,59.2,30.12,NE,34,0.0,3.0,98,0.00,,,0.00,0.0,meteohub,2013-11-16 07:27:00,
2013-11-16 02:32:00,59.5,59.0,30.12,NE,34,0.0,3.0,98,0.00,,,0.00,0.0,meteohub,2013-11-16 07:32:00,
2013-11-16 02:37:00,59.5,59.0,30.12,NE,34,0.0,3.0,98,0.00,,,0.00,0.0,meteohub,2013-11-16 07:37:00,
2013-11-16 02:42:00,59.5,59.0,30.12,NE,34,2.0,3.0,98,0.00,,,0.00,0.0,meteohub,2013-11-16 07:42:00,
2013-11-16 02:47:00,59.5,59.0,30.12,NE,34,0.0,2.0,98,0.00,,,0.00,0.0,meteohub,2013-11-16 07:47:00,
2013-11-16 02:52:00,59.5,59.0,30.12,NE,34,1.0,3.0,98,0.00,,,0.00,0.0,meteohub,2013-11-16 07:52:00,
2013-11-16 02:57:00,59.5,59.0,30.12,NE,34,0.0,3.0,98,0.00,,,0.00,0.0,meteohub,2013-11-16 07:57:00,
2013-11-16 03:02:00,59.5,59.0,30.12,NE,34,0.0,3.0,98,0.00,,,0.00,0.0,meteohub,2013-11-16 08:02:00,
2013-11-16 03:07:00,59.5,59.0,30.12,NE,34,1.0,3.0,98,0.00,,,0.00,0.0,meteohub,2013-11-16 08:07:00,
2013-11-16 03:12:00,59.5,59.0,30.12,NE,34,1.0,3.0,98,0.00,,,0.00,0.0,meteohub,2013-11-16 08:12:00,
2013-11-16 03:17:00,59.7,59.2,30.12,NE,34,0.0,3.0,98,0.00,,,0.00,0.0,meteohub,2013-11-16 08:17:00,
2013-11-16 03:22:00,59.7,59.2,30.12,NE,34,0.0,3.0,98,0.00,,,0.00,0.0,meteohub,2013-11-16 08:22:00,
2013-11-16 03:27:00,59.7,59.2,30.12,NE,34,2.0,3.0,98,0.00,,,0.00,0.0,meteohub,2013-11-16 08:27:00,
2013-11-16 03:32:00,59.7,59.2,30.12,NE,35,1.0,3.0,98,0.00,,,0.00,0.0,meteohub,2013-11-16 08:32:00,
2013-11-16 03:37:00,59.7,59.2,30.12,NNE,26,2.0,3.0,98,0.00,,,0.00,0.0,meteohub,2013-11-16 08:37:00,
2013-11-16 03:42:00,59.7,59.2,30.12,NE,34,0.0,3.0,98,0.00,,,0.00,0.0,meteohub,2013-11-16 08:42:00,
2013-11-16 03:47:00,59.7,59.2,30.12,NE,44,1.0,6.0,98,0.00,,,0.00,0.0,meteohub,2013-11-16 08:47:00,
2013-11-16 03:52:00,59.7,59.2,30.12,NE,44,2.0,6.0,98,0.00,,,0.00,0.0,meteohub,2013-11-16 08:52:00,
2013-11-16 03:57:00,59.5,59.0,30.12,NNE,22,0.0,6.0,98,0.00,,,0.00,0.0,meteohub,2013-11-16 08:57:00,
2013-11-16 04:02:00,59.7,59.2,30.12,NNE,26,0.0,4.0,98,0.00,,,0.00,0.0,meteohub,2013-11-16 09:02:00,
2013-11-16 04:07:00,59.7,59.2,30.12,NNE,27,1.0,3.0,98,0.00,,,0.00,0.0,meteohub,2013-11-16 09:07:00,
2013-11-16 04:12:00,59.7,59.2,30.12,WNW,298,1.0,3.0,98,0.00,,,0.00,0.0,meteohub,2013-11-16 09:12:00,
2013-11-16 04:17:00,59.7,59.2,30.13,NNE,28,2.0,3.0,98,0.00,,,0.00,0.0,meteohub,2013-11-16 09:17:00,
2013-11-16 04:22:00,59.7,59.2,30.13,NNE,22,2.0,4.0,98,0.00,,,0.00,0.0,meteohub,2013-11-16 09:22:00,
2013-11-16 04:27:00,59.5,59.0,30.13,NNE,25,0.0,4.0,98,0.00,,,0.00,0.0,meteohub,2013-11-16 09:27:00,
2013-11-16 04:32:00,59.5,59.0,30.13,NNE,25,3.0,4.0,98,0.00,,,0.00,0.0,meteohub,2013-11-16 09:32:00,
2013-11-16 04:37:00,59.5,59.0,30.13,NNE,30,0.0,4.0,98,0.00,,,0.00,0.0,meteohub,2013-11-16 09:37:00,
2013-11-16 04:42:00,59.5,59.0,30.14,NNE,29,2.0,5.0,98,0.00,,,0.00,0.0,meteohub,2013-11-16 09:42:00,
2013-11-16 04:47:00,59.4,58.8,30.14,NNE,30,0.0,5.0,98,0.00,,,0.00,0.0,meteohub,2013-11-16 09:47:00,
2013-11-16 04:53:00,59.4,58.8,30.13,NNE,24,0.0,4.0,98,0.00,,,0.00,0.0,meteohub,2013-11-16 09:53:00,
2013-11-16 04:58:00,59.4,58.8,30.14,NNE,24,1.0,4.0,98,0.00,,,0.00,0.0,meteohub,2013-11-16 09:58:00,
2013-11-16 05:03:00,59.2,58.6,30.14,NNE,24,1.0,4.0,98,0.00,,,0.00,0.0,meteohub,2013-11-16 10:03:00,
2013-11-16 05:08:00,59.2,58.6,30.14,NNE,25,0.0,3.0,98,0.00,,,0.00,0.0,meteohub,2013-11-16 10:08:00,
2013-11-16 05:13:00,59.0,58.5,30.14,NNE,26,0.0,3.0,98,0.00,,,0.00,0.0,meteohub,2013-11-16 10:13:00,
2013-11-16 05:18:00,59.0,58.5,30.14,NNE,28,1.0,3.0,98,0.00,,,0.00,0.0,meteohub,2013-11-16 10:18:00,
2013-11-16 05:23:00,59.0,59.0,30.12,NNE,28,2.0,-999.0,98,-99.99,,,0.00,0,weatherlink.com 1.10,2013-11-16 10:23:00,
2013-11-16 05:28:00,59.0,58.5,30.14,NNE,28,0.0,3.0,98,0.00,,,0.00,0.0,meteohub,2013-11-16 10:28:00,
2013-11-16 05:33:00,59.0,58.5,30.14,NNE,28,0.0,3.0,98,0.00,,,0.00,0.0,meteohub,2013-11-16 10:33:00,
2013-11-16 05:38:00,59.0,58.5,30.14,NNE,28,0.0,3.0,98,0.00,,,0.00,0.0,meteohub,2013-11-16 10:38:00,
2013-11-16 05:43:00,59.2,58.6,30.14,NNE,28,0.0,3.0,98,0.00,,,0.00,0.0,meteohub,2013-11-16 10:43:00,
2013-11-16 05:48:00,59.2,58.6,30.14,NNE,28,0.0,3.0,98,0.00,,,0.00,0.0,meteohub,2013-11-16 10:48:00,
2013-11-16 05:53:00,59.4,58.8,30.15,NNE,28,0.0,3.0,98,0.01,,,0.01,0.0,meteohub,2013-11-16 10:53:00,
2013-11-16 05:58:00,59.5,59.0,30.15,NNE,28,1.0,3.0,98,0.01,,,0.01,0.0,meteohub,2013-11-16 10:58:00,
2013-11-16 06:03:00,59.5,59.0,30.15,NNE,28,1.0,2.0,98,0.01,,,0.01,0.0,meteohub,2013-11-16 11:03:00,
2013-11-16 06:08:00,59.5,59.0,30.15,NNE,28,1.0,2.0,98,0.01,,,0.01,0.0,meteohub,2013-11-16 11:08:00,
2013-11-16 06:13:00,59.5,59.0,30.15,NNE,28,0.0,2.0,98,0.01,,,0.01,0.0,meteohub,2013-11-16 11:13:00,
2013-11-16 06:18:00,59.7,59.2,30.15,NNE,28,1.0,2.0,98,0.01,,,0.01,0.0,meteohub,2013-11-16 11:18:00,
2013-11-16 06:23:00,59.7,59.2,30.15,NNE,28,0.0,2.0,98,0.01,,,0.01,0.0,meteohub,2013-11-16 11:23:00,
2013-11-16 06:28:00,59.7,59.2,30.15,NNE,28,0.0,2.0,98,0.01,,,0.01,0.0,meteohub,2013-11-16 11:28:00,
2013-11-16 06:33:00,59.7,59.2,30.15,NNE,28,0.0,2.0,98,0.01,,,0.01,0.0,meteohub,2013-11-16 11:33:00,
2013-11-16 06:38:00,59.7,59.2,30.15,NNE,28,1.0,2.0,98,0.01,,,0.01,0.0,meteohub,2013-11-16 11:38:00,
2013-11-16 06:43:00,59.7,59.2,30.15,NNE,28,0.0,2.0,98,0.01,,,0.01,0.0,meteohub,2013-11-16 11:43:00,
2013-11-16 06:48:00,59.7,59.2,30.15,NNE,28,1.0,3.0,98,0.00,,,0.01,0.0,meteohub,2013-11-16 11:48:00,
2013-11-16 06:53:00,59.7,59.2,30.15,NNE,28,0.0,3.0,98,0.00,,,0.01,0.0,meteohub,2013-11-16 11:53:00,
2013-11-16 06:58:00,59.7,59.2,30.16,NNE,28,0.0,3.0,98,0.00,,,0.01,0.0,meteohub,2013-11-16 11:58:00,
2013-11-16 07:03:00,59.7,59.2,30.16,NNE,28,0.0,3.0,98,0.00,,,0.01,7.0,meteohub,2013-11-16 12:03:00,
2013-11-16 07:08:00,59.7,59.2,30.16,NNE,28,0.0,3.0,98,0.00,,,0.01,9.0,meteohub,2013-11-16 12:08:00,
2013-11-16 07:13:00,59.7,59.2,30.16,NNE,28,0.0,2.0,98,0.00,,,0.01,12.0,meteohub,2013-11-16 12:13:00,
2013-11-16 07:18:00,59.9,59.4,30.17,NNE,28,0.0,2.0,98,0.00,,,0.01,18.0,meteohub,2013-11-16 12:18:00,
2013-11-16 07:23:00,60.1,59.5,30.17,NNE,28,0.0,2.0,98,0.00,,,0.01,19.0,meteohub,2013-11-16 12:23:00,
2013-11-16 07:28:00,60.1,59.5,30.17,NNE,28,0.0,1.0,98,0.00,,,0.01,25.0,meteohub,2013-11-16 12:28:00,
2013-11-16 07:33:00,60.1,59.5,30.17,NNE,28,0.0,2.0,98,0.00,,,0.01,33.0,meteohub,2013-11-16 12:33:00,
2013-11-16 07:38:00,60.3,59.7,30.17,NNE,28,1.0,2.0,98,0.00,,,0.01,42.0,meteohub,2013-11-16 12:38:00,
2013-11-16 07:43:00,60.3,59.7,30.17,NNE,28,1.0,1.0,98,0.00,,,0.01,39.0,meteohub,2013-11-16 12:43:00,
2013-11-16 07:48:00,60.3,59.7,30.17,NNE,28,1.0,3.0,98,0.00,,,0.01,47.0,meteohub,2013-11-16 12:48:00,
2013-11-16 07:53:00,60.4,59.9,30.17,NE,36,1.0,3.0,98,0.00,,,0.01,54.0,meteohub,2013-11-16 12:53:00,
2013-11-16 07:58:00,60.4,59.9,30.17,NE,36,3.0,4.0,98,0.00,,,0.01,67.0,meteohub,2013-11-16 12:58:00,
2013-11-16 08:03:00,60.6,60.1,30.17,NE,43,1.0,4.0,98,0.00,,,0.01,70.0,meteohub,2013-11-16 13:03:00,
2013-11-16 08:08:00,60.8,60.3,30.17,ENE,65,0.0,4.0,98,0.00,,,0.01,91.0,meteohub,2013-11-16 13:08:00,
2013-11-16 08:13:00,61.2,60.6,30.17,ENE,64,0.0,4.0,98,0.00,,,0.01,79.0,meteohub,2013-11-16 13:13:00,
2013-11-16 08:18:00,61.2,60.6,30.17,NE,38,3.0,4.0,98,0.00,,,0.01,88.0,meteohub,2013-11-16 13:18:00,
2013-11-16 08:23:00,61.3,60.8,30.17,NNE,23,0.0,5.0,98,0.00,,,0.01,107.0,meteohub,2013-11-16 13:23:00,
2013-11-16 08:28:00,61.3,60.8,30.17,NNE,24,2.0,5.0,98,0.00,,,0.01,130.0,meteohub,2013-11-16 13:28:00,
2013-11-16 08:33:00,61.5,61.0,30.17,NNE,30,0.0,5.0,98,0.00,,,0.01,120.0,meteohub,2013-11-16 13:33:00,
2013-11-16 08:38:00,61.7,61.3,30.17,NNE,30,0.0,5.0,99,0.00,,,0.01,141.0,meteohub,2013-11-16 13:38:00,
2013-11-16 08:43:00,61.9,61.3,30.18,NE,34,0.0,5.0,98,0.00,,,0.01,218.0,meteohub,2013-11-16 13:43:00,
2013-11-16 08:48:00,62.1,61.5,30.17,NE,34,0.0,5.0,98,0.00,,,0.01,209.0,meteohub,2013-11-16 13:48:00,
2013-11-16 08:53:00,62.2,61.9,30.17,NE,34,2.0,5.0,99,0.00,,,0.01,232.0,meteohub,2013-11-16 13:53:00,
2013-11-16 08:58:00,62.4,62.1,30.17,ENE,78,2.0,5.0,99,0.00,,,0.01,167.0,meteohub,2013-11-16 13:58:00,
2013-11-16 09:03:00,62.4,62.1,30.18,NE,52,2.0,5.0,99,0.00,,,0.01,207.0,meteohub,2013-11-16 14:03:00,
2013-11-16 09:08:00,62.8,62.2,30.18,NNE,19,3.0,6.0,98,0.00,,,0.01,292.0,meteohub,2013-11-16 14:08:00,
2013-11-16 09:13:00,63.0,62.4,30.18,East,79,3.0,6.0,98,0.00,,,0.01,274.0,meteohub,2013-11-16 14:13:00,
2013-11-16 09:18:00,63.1,62.8,30.18,NNE,14,4.0,8.0,99,0.00,,,0.01,190.0,meteohub,2013-11-16 14:18:00,
2013-11-16 09:23:00,63.3,62.8,30.18,NE,50,4.0,8.0,98,0.00,,,0.01,343.0,meteohub,2013-11-16 14:23:00,
2013-11-16 09:28:00,63.3,62.8,30.18,NE,44,4.0,8.0,98,0.00,,,0.01,332.0,meteohub,2013-11-16 14:28:00,
2013-11-16 09:33:00,63.7,63.3,30.18,NE,44,8.0,8.0,99,0.00,,,0.01,380.0,meteohub,2013-11-16 14:33:00,
2013-11-16 09:38:00,63.7,63.3,30.18,NE,50,2.0,8.0,99,0.00,,,0.01,387.0,meteohub,2013-11-16 14:38:00,
2013-11-16 09:43:00,64.0,63.5,30.18,NE,53,3.0,9.0,98,0.00,,,0.01,566.0,meteohub,2013-11-16 14:43:00,
2013-11-16 09:48:00,64.0,63.5,30.18,NNE,26,3.0,9.0,98,0.00,,,0.01,301.0,meteohub,2013-11-16 14:48:00,
2013-11-16 09:53:00,64.4,64.0,30.18,NE,53,3.0,7.0,99,0.00,,,0.01,471.0,meteohub,2013-11-16 14:53:00,
2013-11-16 09:58:00,64.9,64.6,30.18,NE,36,6.0,7.0,99,0.00,,,0.01,550.0,meteohub,2013-11-16 14:58:00,
2013-11-16 10:03:00,65.3,64.8,30.18,ENE,65,3.0,7.0,98,0.00,,,0.01,559.0,meteohub,2013-11-16 15:03:00,
2013-11-16 10:08:00,65.8,65.3,30.18,NE,42,2.0,7.0,98,0.00,,,0.01,555.0,meteohub,2013-11-16 15:08:00,
2013-11-16 10:14:00,66.0,65.5,30.18,NNE,23,4.0,7.0,98,0.00,,,0.01,584.0,meteohub,2013-11-16 15:14:00,
2013-11-16 10:18:00,66.0,65.7,30.18,ENE,68,2.0,6.0,99,0.00,,,0.01,571.0,meteohub,2013-11-16 15:18:00,
2013-11-16 10:24:00,66.6,66.0,30.18,ENE,61,4.0,8.0,98,0.00,,,0.01,571.0,meteohub,2013-11-16 15:24:00,
2013-11-16 10:29:00,66.9,66.4,30.18,NNE,30,3.0,9.0,98,0.00,,,0.01,510.0,meteohub,2013-11-16 15:29:00,
2013-11-16 10:34:00,67.3,66.4,30.18,NE,46,3.0,9.0,97,0.00,,,0.01,596.0,meteohub,2013-11-16 15:34:00,
2013-11-16 10:39:00,67.8,66.6,30.18,ENE,61,2.0,9.0,96,0.00,,,0.01,592.0,meteohub,2013-11-16 15:39:00,
2013-11-16 10:44:00,68.2,66.0,30.18,ENE,76,1.0,8.0,93,0.00,,,0.01,598.0,meteohub,2013-11-16 15:44:00,
2013-11-16 10:49:00,68.4,66.0,30.17,NE,42,4.0,9.0,92,0.00,,,0.01,601.0,meteohub,2013-11-16 15:49:00,
2013-11-16 10:54:00,68.5,65.8,30.17,NNE,24,3.0,9.0,91,0.00,,,0.01,582.0,meteohub,2013-11-16 15:54:00,
2013-11-16 10:59:00,68.7,65.3,30.17,NE,38,5.0,9.0,89,0.00,,,0.01,626.0,meteohub,2013-11-16 15:59:00,
2013-11-16 11:04:00,69.3,65.5,30.17,ESE,120,4.0,10.0,88,0.00,,,0.01,635.0,meteohub,2013-11-16 16:04:00,
2013-11-16 11:09:00,69.4,65.1,30.17,NNE,17,4.0,10.0,86,0.00,,,0.01,640.0,meteohub,2013-11-16 16:09:00,
2013-11-16 11:14:00,69.4,64.8,30.17,NE,36,6.0,10.0,85,0.00,,,0.01,652.0,meteohub,2013-11-16 16:14:00,
2013-11-16 11:19:00,69.8,64.8,30.17,ESE,109,7.0,13.0,84,0.00,,,0.01,649.0,meteohub,2013-11-16 16:19:00,
2013-11-16 11:24:00,70.0,64.6,30.17,NE,46,2.0,13.0,83,0.00,,,0.01,661.0,meteohub,2013-11-16 16:24:00,
2013-11-16 11:29:00,70.0,64.6,30.17,North,10,5.0,13.0,83,0.00,,,0.01,615.0,meteohub,2013-11-16 16:29:00,
2013-11-16 11:34:00,70.2,64.8,30.17,NE,52,3.0,10.0,83,0.00,,,0.01,605.0,meteohub,2013-11-16 16:34:00,
2013-11-16 11:39:00,70.5,64.8,30.17,NE,55,3.0,10.0,82,0.00,,,0.01,606.0,meteohub,2013-11-16 16:39:00,
2013-11-16 11:44:00,70.7,64.6,30.16,ENE,63,3.0,10.0,81,0.00,,,0.01,633.0,meteohub,2013-11-16 16:44:00,
2013-11-16 11:49:00,71.1,64.9,30.16,ENE,74,5.0,10.0,81,0.00,,,0.01,659.0,meteohub,2013-11-16 16:49:00,
2013-11-16 11:54:00,71.1,64.9,30.16,ENE,61,4.0,10.0,81,0.00,,,0.01,686.0,meteohub,2013-11-16 16:54:00,
2013-11-16 11:59:00,71.2,65.5,30.16,ENE,62,3.0,12.0,82,0.00,,,0.01,714.0,meteohub,2013-11-16 16:59:00,
2013-11-16 12:04:00,71.4,65.7,30.16,East,94,2.0,12.0,82,0.00,,,0.01,726.0,meteohub,2013-11-16 17:04:00,
2013-11-16 12:09:00,71.8,65.7,30.15,ESE,119,5.0,10.0,81,0.00,,,0.01,664.0,meteohub,2013-11-16 17:09:00,
2013-11-16 12:14:00,71.8,65.7,30.15,NE,51,5.0,8.0,81,0.00,,,0.01,650.0,meteohub,2013-11-16 17:14:00,
2013-11-16 12:19:00,71.6,65.1,30.15,NNE,28,6.0,10.0,80,0.00,,,0.01,633.0,meteohub,2013-11-16 17:19:00,
2013-11-16 12:24:00,71.2,64.8,30.15,NE,52,7.0,10.0,80,0.00,,,0.01,631.0,meteohub,2013-11-16 17:24:00,
2013-11-16 12:29:00,71.1,64.9,30.14,NNE,13,4.0,10.0,81,0.00,,,0.01,661.0,meteohub,2013-11-16 17:29:00,
2013-11-16 12:34:00,71.2,65.1,30.14,NE,39,5.0,12.0,81,0.00,,,0.01,779.0,meteohub,2013-11-16 17:34:00,
2013-11-16 12:39:00,71.4,64.9,30.14,NE,48,4.0,12.0,80,0.00,,,0.01,724.0,meteohub,2013-11-16 17:39:00,
2013-11-16 12:44:00,71.2,65.1,30.14,NNE,18,5.0,12.0,81,0.00,,,0.01,708.0,meteohub,2013-11-16 17:44:00,
2013-11-16 12:49:00,72.0,65.5,30.14,ESE,103,9.0,11.0,80,0.00,,,0.01,682.0,meteohub,2013-11-16 17:49:00,
2013-11-16 12:54:00,72.0,65.1,30.13,NNE,14,5.0,11.0,79,0.00,,,0.01,700.0,meteohub,2013-11-16 17:54:00,
2013-11-16 12:59:00,72.1,64.9,30.13,NE,53,6.0,11.0,78,0.00,,,0.01,668.0,meteohub,2013-11-16 17:59:00,
2013-11-16 13:04:00,72.1,64.9,30.13,NE,53,3.0,11.0,78,0.00,,,0.01,675.0,meteohub,2013-11-16 18:04:00,
2013-11-16 13:09:00,72.1,64.9,30.13,ENE,60,5.0,11.0,78,0.00,,,0.01,675.0,meteohub,2013-11-16 18:09:00,
2013-11-16 13:14:00,72.1,64.9,30.13,ENE,57,4.0,10.0,78,0.00,,,0.01,677.0,meteohub,2013-11-16 18:14:00,
2013-11-16 13:19:00,72.0,65.1,30.12,NE,36,2.0,10.0,79,0.00,,,0.01,680.0,meteohub,2013-11-16 18:19:00,
2013-11-16 13:24:00,72.3,65.1,30.13,East,90,2.0,10.0,78,0.00,,,0.01,684.0,meteohub,2013-11-16 18:24:00,
2013-11-16 13:29:00,72.3,65.5,30.12,NNE,13,4.0,10.0,79,0.00,,,0.01,700.0,meteohub,2013-11-16 18:29:00,
2013-11-16 13:34:00,72.7,65.5,30.12,NNE,20,5.0,10.0,78,0.00,,,0.01,671.0,meteohub,2013-11-16 18:34:00,
2013-11-16 13:40:00,72.3,65.1,30.12,ESE,105,8.0,8.0,78,0.00,,,0.01,640.0,meteohub,2013-11-16 18:40:00,
2013-11-16 13:45:00,72.7,65.5,30.12,SE,146,2.0,11.0,78,0.00,,,0.01,708.0,meteohub,2013-11-16 18:45:00,
2013-11-16 13:50:00,72.3,65.1,30.12,NE,40,3.0,11.0,78,0.00,,,0.01,468.0,meteohub,2013-11-16 18:50:00,
2013-11-16 13:55:00,72.1,65.3,30.12,ENE,65,2.0,11.0,79,0.00,,,0.01,279.0,meteohub,2013-11-16 18:55:00,
2013-11-16 14:00:00,72.1,64.9,30.12,ESE,123,0.0,10.0,78,0.00,,,0.01,390.0,meteohub,2013-11-16 19:00:00,
2013-11-16 14:05:00,72.1,65.3,30.11,ENE,63,5.0,9.0,79,0.00,,,0.01,202.0,meteohub,2013-11-16 19:05:00,
2013-11-16 14:10:00,71.8,64.9,30.11,NNE,25,5.0,9.0,79,0.00,,,0.01,239.0,meteohub,2013-11-16 19:10:00,
2013-11-16 14:15:00,71.4,65.3,30.11,ESE,117,3.0,9.0,81,0.00,,,0.01,258.0,meteohub,2013-11-16 19:15:00,
2013-11-16 14:20:00,71.2,65.5,30.11,NE,55,3.0,8.0,82,0.00,,,0.01,237.0,meteohub,2013-11-16 19:20:00,
2013-11-16 14:25:00,71.2,65.8,30.11,NNE,29,3.0,8.0,83,0.00,,,0.01,223.0,meteohub,2013-11-16 19:25:00,
2013-11-16 14:30:00,71.2,65.8,30.11,NE,51,3.0,8.0,83,0.00,,,0.01,206.0,meteohub,2013-11-16 19:30:00,
2013-11-16 14:35:00,70.9,65.8,30.11,NE,36,2.0,10.0,84,0.00,,,0.01,202.0,meteohub,2013-11-16 19:35:00,
2013-11-16 14:40:00,70.7,65.7,30.11,ENE,59,3.0,10.0,84,0.00,,,0.01,193.0,meteohub,2013-11-16 19:40:00,
2013-11-16 14:45:00,70.5,65.5,30.11,East,99,2.0,10.0,84,0.00,,,0.01,211.0,meteohub,2013-11-16 19:45:00,
2013-11-16 14:50:00,70.9,66.2,30.11,East,98,6.0,7.0,85,0.00,,,0.01,200.0,meteohub,2013-11-16 19:50:00,
2013-11-16 14:55:00,70.9,66.2,30.11,ENE,72,0.0,7.0,85,0.00,,,0.01,193.0,meteohub,2013-11-16 19:55:00,
2013-11-16 15:00:00,70.9,66.2,30.11,East,94,2.0,6.0,85,0.00,,,0.01,209.0,meteohub,2013-11-16 20:00:00,
2013-11-16 15:05:00,70.7,66.0,30.10,NE,36,6.0,8.0,85,0.00,,,0.01,193.0,meteohub,2013-11-16 20:05:00,
2013-11-16 15:10:00,70.5,65.8,30.10,North,355,4.0,8.0,85,0.00,,,0.01,153.0,meteohub,2013-11-16 20:10:00,
2013-11-16 15:15:00,70.3,66.0,30.10,NE,55,1.0,8.0,86,0.00,,,0.01,172.0,meteohub,2013-11-16 20:15:00,
2013-11-16 15:20:00,70.3,65.7,30.10,NNE,17,3.0,8.0,85,0.00,,,0.01,128.0,meteohub,2013-11-16 20:20:00,
2013-11-16 15:25:00,70.2,65.5,30.10,ENE,65,4.0,8.0,85,0.00,,,0.01,83.0,meteohub,2013-11-16 20:25:00,
2013-11-16 15:30:00,70.0,65.3,30.10,NE,55,0.0,8.0,85,0.00,,,0.01,79.0,meteohub,2013-11-16 20:30:00,
2013-11-16 15:35:00,70.0,65.7,30.10,NE,52,2.0,8.0,86,0.00,,,0.01,98.0,meteohub,2013-11-16 20:35:00,
2013-11-16 15:40:00,70.0,65.7,30.10,NE,56,2.0,8.0,86,0.00,,,0.01,127.0,meteohub,2013-11-16 20:40:00,
2013-11-16 15:46:00,70.0,65.7,30.10,ENE,68,3.0,6.0,86,0.00,,,0.01,111.0,meteohub,2013-11-16 20:46:00,
2013-11-16 15:51:00,70.2,65.8,30.10,NE,51,0.0,6.0,86,0.00,,,0.01,102.0,meteohub,2013-11-16 20:51:00,
2013-11-16 15:56:00,70.2,65.8,30.10,NE,51,0.0,6.0,86,0.00,,,0.01,86.0,meteohub,2013-11-16 20:56:00,
2013-11-16 16:01:00,70.2,65.8,30.11,NE,51,0.0,6.0,86,0.00,,,0.01,69.0,meteohub,2013-11-16 21:01:00,
2013-11-16 16:06:00,70.0,65.7,30.11,NE,51,0.0,3.0,86,0.00,,,0.01,76.0,meteohub,2013-11-16 21:06:00,
2013-11-16 16:11:00,69.8,65.5,30.11,SE,124,4.0,4.0,86,0.00,,,0.01,53.0,meteohub,2013-11-16 21:11:00,
2013-11-16 16:16:00,69.4,65.5,30.11,NNE,29,1.0,4.0,87,0.00,,,0.01,77.0,meteohub,2013-11-16 21:16:00,
2013-11-16 16:21:00,69.4,65.5,30.10,NNE,29,0.0,4.0,87,0.00,,,0.01,65.0,meteohub,2013-11-16 21:21:00,
2013-11-16 16:26:00,69.3,65.3,30.10,NE,37,1.0,4.0,87,0.00,,,0.01,60.0,meteohub,2013-11-16 21:26:00,
2013-11-16 16:31:00,69.3,65.3,30.11,NE,37,0.0,3.0,87,0.00,,,0.01,46.0,meteohub,2013-11-16 21:31:00,
2013-11-16 16:36:00,69.3,65.3,30.11,NE,37,0.0,3.0,87,0.00,,,0.01,39.0,meteohub,2013-11-16 21:36:00,
2013-11-16 16:41:00,69.1,65.1,30.10,NE,37,0.0,3.0,87,0.00,,,0.01,39.0,meteohub,2013-11-16 21:41:00,
2013-11-16 16:46:00,69.1,65.3,30.10,NE,37,0.0,1.0,88,0.00,,,0.01,30.0,meteohub,2013-11-16 21:46:00,
2013-11-16 16:51:00,68.9,65.1,30.10,ESE,103,0.0,1.0,88,0.00,,,0.01,25.0,meteohub,2013-11-16 21:51:00,
2013-11-16 16:56:00,68.7,64.9,30.10,ESE,110,0.0,3.0,88,0.00,,,0.01,26.0,meteohub,2013-11-16 21:56:00,
2013-11-16 17:01:00,68.5,64.8,30.10,NE,55,1.0,3.0,88,0.00,,,0.01,19.0,meteohub,2013-11-16 22:01:00,
2013-11-16 17:06:00,68.5,64.8,30.10,NE,55,0.0,3.0,88,0.00,,,0.01,14.0,meteohub,2013-11-16 22:06:00,
2013-11-16 17:11:00,68.4,64.6,30.10,NE,55,0.0,2.0,88,0.00,,,0.01,16.0,meteohub,2013-11-16 22:11:00,
2013-11-16 17:16:00,68.4,64.6,30.10,NE,56,0.0,2.0,88,0.00,,,0.01,12.0,meteohub,2013-11-16 22:16:00,
2013-11-16 17:21:00,68.2,64.8,30.10,ENE,57,0.0,2.0,89,0.00,,,0.01,7.0,meteohub,2013-11-16 22:21:00,
2013-11-16 17:26:00,68.2,64.8,30.10,ENE,57,0.0,3.0,89,0.00,,,0.01,0.0,meteohub,2013-11-16 22:26:00,
2013-11-16 17:31:00,67.8,64.4,30.10,NE,42,1.0,3.0,89,0.00,,,0.01,0.0,meteohub,2013-11-16 22:31:00,
2013-11-16 17:36:00,67.8,64.4,30.10,NE,48,0.0,3.0,89,0.00,,,0.01,0.0,meteohub,2013-11-16 22:36:00,
2013-11-16 17:41:00,67.6,64.6,30.10,NE,48,0.0,3.0,90,0.00,,,0.01,0.0,meteohub,2013-11-16 22:41:00,
2013-11-16 17:46:00,67.6,64.6,30.10,NE,48,0.0,3.0,90,0.00,,,0.01,0.0,meteohub,2013-11-16 22:46:00,
2013-11-16 17:51:00,67.5,64.4,30.10,NE,48,0.0,3.0,90,0.00,,,0.01,0.0,meteohub,2013-11-16 22:51:00,
2013-11-16 17:56:00,67.5,64.4,30.10,NE,48,0.0,3.0,90,0.00,,,0.01,0.0,meteohub,2013-11-16 22:56:00,
2013-11-16 18:01:00,67.3,64.2,30.10,NE,48,0.0,3.0,90,0.00,,,0.01,0.0,meteohub,2013-11-16 23:01:00,
2013-11-16 18:06:00,67.1,64.4,30.10,NE,48,0.0,2.0,91,0.00,,,0.01,0.0,meteohub,2013-11-16 23:06:00,
2013-11-16 18:11:00,66.9,64.2,30.10,NE,48,0.0,0.0,91,0.00,,,0.01,0.0,meteohub,2013-11-16 23:11:00,
2013-11-16 18:17:00,66.9,64.2,30.11,NE,48,0.0,1.0,91,0.00,,,0.01,0.0,meteohub,2013-11-16 23:17:00,
2013-11-16 18:22:00,66.7,64.0,30.11,NE,48,0.0,1.0,91,0.00,,,0.01,0.0,meteohub,2013-11-16 23:22:00,
2013-11-16 18:27:00,66.7,64.0,30.11,NE,48,0.0,1.0,91,0.00,,,0.01,0.0,meteohub,2013-11-16 23:27:00,
2013-11-16 18:32:00,66.6,63.9,30.11,NE,48,0.0,0.0,91,0.00,,,0.01,0.0,meteohub,2013-11-16 23:32:00,
2013-11-16 18:37:00,66.4,64.0,30.11,NE,48,0.0,3.0,92,0.00,,,0.01,0.0,meteohub,2013-11-16 23:37:00,
2013-11-16 18:42:00,66.4,64.0,30.11,NE,48,0.0,3.0,92,0.00,,,0.01,0.0,meteohub,2013-11-16 23:42:00,
2013-11-16 18:47:00,66.2,63.9,30.11,NE,48,0.0,2.0,92,0.00,,,0.01,0.0,meteohub,2013-11-16 23:47:00,
2013-11-16 18:52:00,66.0,63.7,30.11,NNE,25,0.0,1.0,92,0.00,,,0.01,0.0,meteohub,2013-11-16 23:52:00,
2013-11-16 18:57:00,66.0,63.7,30.11,NNE,25,0.0,2.0,92,0.00,,,0.01,0.0,meteohub,2013-11-16 23:57:00,
2013-11-16 19:02:00,66.0,63.3,30.11,NNE,25,0.0,2.0,91,0.00,,,0.01,0.0,meteohub,2013-11-17 00:02:00,
2013-11-16 19:07:00,65.8,63.5,30.11,NNE,26,0.0,2.0,92,0.00,,,0.01,0.0,meteohub,2013-11-17 00:07:00,
2013-11-16 19:12:00,65.8,63.5,30.11,NNE,26,0.0,2.0,92,0.00,,,0.01,0.0,meteohub,2013-11-17 00:12:00,
2013-11-16 19:17:00,65.8,63.5,30.11,NNE,25,0.0,1.0,92,0.00,,,0.01,0.0,meteohub,2013-11-17 00:17:00,
2013-11-16 19:22:00,65.8,63.5,30.11,NNE,26,0.0,1.0,92,0.00,,,0.01,0.0,meteohub,2013-11-17 00:22:00,
2013-11-16 19:27:00,65.7,63.3,30.12,NNE,25,0.0,0.0,92,0.00,,,0.01,0.0,meteohub,2013-11-17 00:27:00,
2013-11-16 19:32:00,65.7,63.3,30.12,NNE,25,1.0,0.0,92,0.00,,,0.01,0.0,meteohub,2013-11-17 00:32:00,
2013-11-16 19:37:00,65.7,63.0,30.12,NNE,26,0.0,2.0,91,0.00,,,0.01,0.0,meteohub,2013-11-17 00:37:00,
2013-11-16 19:42:00,65.7,63.0,30.12,NE,34,0.0,4.0,91,0.00,,,0.01,0.0,meteohub,2013-11-17 00:42:00,
2013-11-16 19:47:00,65.5,62.8,30.12,NE,35,0.0,4.0,91,0.00,,,0.01,0.0,meteohub,2013-11-17 00:47:00,
2013-11-16 19:52:00,65.5,62.8,30.12,NE,34,0.0,4.0,91,0.00,,,0.01,0.0,meteohub,2013-11-17 00:52:00,
2013-11-16 19:57:00,65.5,62.8,30.12,NE,35,0.0,3.0,91,0.00,,,0.01,0.0,meteohub,2013-11-17 00:57:00,
2013-11-16 20:02:00,65.5,62.8,30.13,NE,37,0.0,3.0,91,0.00,,,0.01,0.0,meteohub,2013-11-17 01:02:00,
2013-11-16 20:07:00,65.5,62.8,30.13,NE,37,0.0,4.0,91,0.00,,,0.01,0.0,meteohub,2013-11-17 01:07:00,
2013-11-16 20:12:00,65.5,62.4,30.12,NE,37,0.0,4.0,90,0.00,,,0.01,0.0,meteohub,2013-11-17 01:12:00,
2013-11-16 20:17:00,65.3,62.2,30.12,NE,38,1.0,4.0,90,0.00,,,0.01,0.0,meteohub,2013-11-17 01:17:00,
2013-11-16 20:22:00,65.3,62.2,30.12,NE,36,3.0,3.0,90,0.00,,,0.01,0.0,meteohub,2013-11-17 01:22:00,
2013-11-16 20:27:00,65.1,62.1,30.12,NE,36,0.0,4.0,90,0.00,,,0.01,0.0,meteohub,2013-11-17 01:27:00,
2013-11-16 20:32:00,65.1,62.1,30.13,NE,36,0.0,4.0,90,0.00,,,0.01,0.0,meteohub,2013-11-17 01:32:00,
2013-11-16 20:37:00,65.1,62.1,30.12,NNE,31,4.0,4.0,90,0.00,,,0.01,0.0,meteohub,2013-11-17 01:37:00,
2013-11-16 20:42:00,65.1,62.1,30.12,NNE,29,0.0,4.0,90,0.00,,,0.01,0.0,meteohub,2013-11-17 01:42:00,
2013-11-16 20:47:00,65.1,62.1,30.12,NNE,29,0.0,4.0,90,0.00,,,0.01,0.0,meteohub,2013-11-17 01:47:00,
2013-11-16 20:52:00,64.9,61.9,30.12,NNE,30,0.0,4.0,90,0.00,,,0.01,0.0,meteohub,2013-11-17 01:52:00,
2013-11-16 20:57:00,64.9,61.9,30.12,NNE,29,0.0,3.0,90,0.00,,,0.01,0.0,meteohub,2013-11-17 01:57:00,
2013-11-16 21:02:00,64.8,62.1,30.12,NNE,29,0.0,3.0,91,0.00,,,0.01,0.0,meteohub,2013-11-17 02:02:00,
2013-11-16 21:07:00,64.6,61.9,30.12,NNE,29,0.0,2.0,91,0.00,,,0.01,0.0,meteohub,2013-11-17 02:07:00,
2013-11-16 21:12:00,64.4,61.7,30.12,NNE,29,0.0,3.0,91,0.00,,,0.01,0.0,meteohub,2013-11-17 02:12:00,
2013-11-16 21:17:00,64.2,61.5,30.12,NNE,29,0.0,3.0,91,0.00,,,0.01,0.0,meteohub,2013-11-17 02:17:00,
2013-11-16 21:22:00,64.0,61.3,30.12,NNE,29,0.0,3.0,91,0.00,,,0.01,0.0,meteohub,2013-11-17 02:22:00,
2013-11-16 21:27:00,63.9,61.5,30.12,NNE,29,2.0,2.0,92,0.00,,,0.01,0.0,meteohub,2013-11-17 02:27:00,
2013-11-16 21:32:00,63.7,61.3,30.12,NNE,29,0.0,2.0,92,0.00,,,0.01,0.0,meteohub,2013-11-17 02:32:00,
2013-11-16 21:37:00,63.7,61.3,30.12,NNE,30,0.0,2.0,92,0.00,,,0.01,0.0,meteohub,2013-11-17 02:37:00,
2013-11-16 21:42:00,63.5,61.5,30.12,NNE,29,0.0,2.0,93,0.00,,,0.01,0.0,meteohub,2013-11-17 02:42:00,
2013-11-16 21:47:00,63.3,61.3,30.12,NNE,30,0.0,2.0,93,0.00,,,0.01,0.0,meteohub,2013-11-17 02:47:00,
2013-11-16 21:52:00,63.3,61.3,30.12,NNE,30,0.0,1.0,93,0.00,,,0.01,0.0,meteohub,2013-11-17 02:52:00,
2013-11-16 21:57:00,63.1,61.2,30.13,NNE,30,0.0,1.0,93,0.00,,,0.01,0.0,meteohub,2013-11-17 02:57:00,
2013-11-16 22:02:00,63.1,61.2,30.13,NNE,26,0.0,2.0,93,0.00,,,0.01,0.0,meteohub,2013-11-17 03:02:00,
2013-11-16 22:07:00,63.1,61.2,30.12,NNE,27,0.0,2.0,93,0.00,,,0.01,0.0,meteohub,2013-11-17 03:07:00,
2013-11-16 22:12:00,63.3,61.5,30.12,NNE,27,0.0,2.0,94,0.00,,,0.01,0.0,meteohub,2013-11-17 03:12:00,
2013-11-16 22:17:00,63.3,61.5,30.12,NNE,27,0.0,2.0,94,0.00,,,0.01,0.0,meteohub,2013-11-17 03:17:00,
2013-11-16 22:22:00,63.3,61.5,30.12,NNE,26,0.0,2.0,94,0.00,,,0.01,0.0,meteohub,2013-11-17 03:22:00,
2013-11-16 22:27:00,63.3,61.5,30.12,NNE,26,1.0,1.0,94,0.00,,,0.01,0.0,meteohub,2013-11-17 03:27:00,
2013-11-16 22:32:00,63.3,61.5,30.12,NNE,27,0.0,1.0,94,0.00,,,0.01,0.0,meteohub,2013-11-17 03:32:00,
2013-11-16 22:37:00,63.3,61.5,30.12,NNE,28,0.0,1.0,94,0.00,,,0.01,0.0,meteohub,2013-11-17 03:37:00,
2013-11-16 22:42:00,63.5,61.7,30.12,NNE,28,0.0,3.0,94,0.00,,,0.01,0.0,meteohub,2013-11-17 03:42:00,
2013-11-16 22:47:00,63.7,61.9,30.12,NNE,28,0.0,3.0,94,0.00,,,0.01,0.0,meteohub,2013-11-17 03:47:00,
2013-11-16 22:52:00,63.7,61.9,30.12,NNE,28,0.0,2.0,94,0.00,,,0.01,0.0,meteohub,2013-11-17 03:52:00,
2013-11-16 22:57:00,63.9,62.1,30.12,NNE,28,0.0,2.0,94,0.00,,,0.01,0.0,meteohub,2013-11-17 03:57:00,
2013-11-16 23:02:00,63.9,62.1,30.12,NNE,28,0.0,3.0,94,0.00,,,0.01,0.0,meteohub,2013-11-17 04:02:00,
2013-11-16 23:07:00,64.0,62.2,30.12,NNE,28,0.0,3.0,94,0.00,,,0.01,0.0,meteohub,2013-11-17 04:07:00,
2013-11-16 23:12:00,64.0,62.2,30.12,NNE,28,0.0,3.0,94,0.00,,,0.01,0.0,meteohub,2013-11-17 04:12:00,
2013-11-16 23:17:00,64.2,62.4,30.12,NNE,30,0.0,3.0,94,0.00,,,0.01,0.0,meteohub,2013-11-17 04:17:00,
2013-11-16 23:22:00,64.2,62.4,30.12,NNE,30,0.0,3.0,94,0.00,,,0.01,0.0,meteohub,2013-11-17 04:22:00,
2013-11-16 23:27:00,64.2,62.4,30.12,NNE,31,0.0,3.0,94,0.00,,,0.01,0.0,meteohub,2013-11-17 04:27:00,
2013-11-16 23:32:00,64.2,62.4,30.12,NNE,31,0.0,4.0,94,0.00,,,0.01,0.0,meteohub,2013-11-17 04:32:00,
2013-11-16 23:37:00,64.2,62.4,30.12,NNE,31,1.0,4.0,94,0.00,,,0.01,0.0,meteohub,2013-11-17 04:37:00,
2013-11-16 23:42:00,64.2,62.4,30.12,NNE,30,0.0,2.0,94,0.00,,,0.01,0.0,meteohub,2013-11-17 04:42:00,
2013-11-16 23:47:00,64.2,62.4,30.12,NNE,30,0.0,2.0,94,0.00,,,0.01,0.0,meteohub,2013-11-17 04:47:00,
2013-11-16 23:52:00,64.2,62.4,30.12,NNE,30,0.0,2.0,94,0.00,,,0.01,0.0,meteohub,2013-11-17 04:52:00,
2013-11-16 23:57:00,64.2,62.4,30.12,NNE,30,0.0,2.0,94,0.00,,,0.01,0.0,meteohub,2013-11-17 04:57:00,